sensor_id;sensor_type;location;lat;lon;timestamp;temperature;humidity
57088;DHT22;42965;52.846;6.614;2024-03-08T00:00:09;1.80;99.90
57088;DHT22;42965;52.846;6.614;2024-03-08T00:02:39;1.80;99.90
57088;DHT22;42965;52.846;6.614;2024-03-08T00:05:07;1.70;99.90
57088;DHT22;42965;52.846;6.614;2024-03-08T00:07:35;1.70;99.90
57088;DHT22;42965;52.846;6.614;2024-03-08T00:10:06;1.70;99.90
57088;DHT22;42965;52.846;6.614;2024-03-08T00:12:33;1.70;99.90
57088;DHT22;42965;52.846;6.614;2024-03-08T00:14:59;1.70;99.90
57088;DHT22;42965;52.846;6.614;2024-03-08T00:17:26;1.60;99.90
57088;DHT22;42965;52.846;6.614;2024-03-08T00:19:53;1.60;99.90
57088;DHT22;42965;52.846;6.614;2024-03-08T00:22:19;1.60;99.90
57088;DHT22;42965;52.846;6.614;2024-03-08T00:24:45;1.60;99.90
57088;DHT22;42965;52.846;6.614;2024-03-08T00:27:11;1.50;99.90
57088;DHT22;42965;52.846;6.614;2024-03-08T00:29:38;1.50;99.90
57088;DHT22;42965;52.846;6.614;2024-03-08T00:32:06;1.50;99.90
57088;DHT22;42965;52.846;6.614;2024-03-08T00:34:37;1.50;99.90
57088;DHT22;42965;52.846;6.614;2024-03-08T00:37:04;1.40;99.90
57088;DHT22;42965;52.846;6.614;2024-03-08T00:39:30;1.50;99.90
57088;DHT22;42965;52.846;6.614;2024-03-08T00:41:59;1.40;99.90
57088;DHT22;42965;52.846;6.614;2024-03-08T00:44:25;1.40;99.90
57088;DHT22;42965;52.846;6.614;2024-03-08T00:46:51;1.40;99.90
57088;DHT22;42965;52.846;6.614;2024-03-08T00:49:18;1.40;99.90
57088;DHT22;42965;52.846;6.614;2024-03-08T00:51:44;1.30;99.90
57088;DHT22;42965;52.846;6.614;2024-03-08T00:54:10;1.30;99.90
57088;DHT22;42965;52.846;6.614;2024-03-08T00:56:37;1.30;99.90
57088;DHT22;42965;52.846;6.614;2024-03-08T00:59:06;1.30;99.90
57088;DHT22;42965;52.846;6.614;2024-03-08T01:01:33;1.30;99.90
57088;DHT22;42965;52.846;6.614;2024-03-08T01:04:01;1.30;99.90
57088;DHT22;42965;52.846;6.614;2024-03-08T01:06:28;1.30;99.90
57088;DHT22;42965;52.846;6.614;2024-03-08T01:08:54;1.20;99.90
57088;DHT22;42965;52.846;6.614;2024-03-08T01:11:20;1.30;99.90
57088;DHT22;42965;52.846;6.614;2024-03-08T01:13:47;1.20;99.90
57088;DHT22;42965;52.846;6.614;2024-03-08T01:16:13;1.20;99.90
57088;DHT22;42965;52.846;6.614;2024-03-08T01:18:39;1.20;99.90
57088;DHT22;42965;52.846;6.614;2024-03-08T01:21:06;1.20;99.90
57088;DHT22;42965;52.846;6.614;2024-03-08T01:23:32;1.20;99.90
57088;DHT22;42965;52.846;6.614;2024-03-08T01:25:58;1.20;99.90
57088;DHT22;42965;52.846;6.614;2024-03-08T01:28:25;1.20;99.90
57088;DHT22;42965;52.846;6.614;2024-03-08T01:30:51;1.20;99.90
57088;DHT22;42965;52.846;6.614;2024-03-08T01:33:25;1.20;99.90
57088;DHT22;42965;52.846;6.614;2024-03-08T01:35:54;1.10;99.90
57088;DHT22;42965;52.846;6.614;2024-03-08T01:38:21;1.10;99.90
57088;DHT22;42965;52.846;6.614;2024-03-08T01:40:48;1.20;99.90
57088;DHT22;42965;52.846;6.614;2024-03-08T01:43:27;1.10;99.90
57088;DHT22;42965;52.846;6.614;2024-03-08T01:45:58;1.10;99.90
57088;DHT22;42965;52.846;6.614;2024-03-08T01:48:26;1.10;99.90
57088;DHT22;42965;52.846;6.614;2024-03-08T01:50:54;1.10;99.90
57088;DHT22;42965;52.846;6.614;2024-03-08T01:53:22;1.10;99.90
57088;DHT22;42965;52.846;6.614;2024-03-08T01:55:49;1.10;99.90
57088;DHT22;42965;52.846;6.614;2024-03-08T01:58:16;1.10;99.90
57088;DHT22;42965;52.846;6.614;2024-03-08T02:00:44;1.10;99.90
57088;DHT22;42965;52.846;6.614;2024-03-08T02:03:12;1.00;99.90
57088;DHT22;42965;52.846;6.614;2024-03-08T02:05:40;1.10;99.90
57088;DHT22;42965;52.846;6.614;2024-03-08T02:08:08;1.00;99.90
57088;DHT22;42965;52.846;6.614;2024-03-08T02:10:39;1.00;99.90
57088;DHT22;42965;52.846;6.614;2024-03-08T02:13:05;1.00;99.90
57088;DHT22;42965;52.846;6.614;2024-03-08T02:18:16;1.00;99.90
57088;DHT22;42965;52.846;6.614;2024-03-08T02:23:21;1.00;99.90
57088;DHT22;42965;52.846;6.614;2024-03-08T02:25:48;1.00;99.90
57088;DHT22;42965;52.846;6.614;2024-03-08T02:28:15;1.00;99.90
57088;DHT22;42965;52.846;6.614;2024-03-08T02:30:41;0.90;99.90
57088;DHT22;42965;52.846;6.614;2024-03-08T02:33:08;0.90;99.90
57088;DHT22;42965;52.846;6.614;2024-03-08T02:35:37;1.00;99.90
57088;DHT22;42965;52.846;6.614;2024-03-08T02:38:06;1.00;99.90
57088;DHT22;42965;52.846;6.614;2024-03-08T02:40:32;1.00;99.90
57088;DHT22;42965;52.846;6.614;2024-03-08T02:42:58;1.00;99.90
57088;DHT22;42965;52.846;6.614;2024-03-08T02:45:25;1.00;99.90
57088;DHT22;42965;52.846;6.614;2024-03-08T02:47:51;1.00;99.90
57088;DHT22;42965;52.846;6.614;2024-03-08T02:50:20;1.00;99.90
57088;DHT22;42965;52.846;6.614;2024-03-08T02:52:48;1.00;99.90
57088;DHT22;42965;52.846;6.614;2024-03-08T02:55:14;1.00;99.90
57088;DHT22;42965;52.846;6.614;2024-03-08T02:57:43;1.00;99.90
57088;DHT22;42965;52.846;6.614;2024-03-08T03:00:10;1.00;99.90
57088;DHT22;42965;52.846;6.614;2024-03-08T03:02:37;0.90;99.90
57088;DHT22;42965;52.846;6.614;2024-03-08T03:05:04;0.90;99.90
57088;DHT22;42965;52.846;6.614;2024-03-08T03:07:32;0.90;99.90
57088;DHT22;42965;52.846;6.614;2024-03-08T03:10:03;0.90;99.90
57088;DHT22;42965;52.846;6.614;2024-03-08T03:12:30;1.00;99.90
57088;DHT22;42965;52.846;6.614;2024-03-08T03:14:57;0.90;99.90
57088;DHT22;42965;52.846;6.614;2024-03-08T03:17:24;1.00;99.90
57088;DHT22;42965;52.846;6.614;2024-03-08T03:19:51;1.00;99.90
57088;DHT22;42965;52.846;6.614;2024-03-08T03:22:18;1.00;99.90
57088;DHT22;42965;52.846;6.614;2024-03-08T03:24:45;1.00;99.90
57088;DHT22;42965;52.846;6.614;2024-03-08T03:27:15;1.00;99.90
57088;DHT22;42965;52.846;6.614;2024-03-08T03:29:42;1.00;99.90
57088;DHT22;42965;52.846;6.614;2024-03-08T03:32:12;1.00;99.90
57088;DHT22;42965;52.846;6.614;2024-03-08T03:34:40;0.90;99.90
57088;DHT22;42965;52.846;6.614;2024-03-08T03:37:07;0.90;99.90
57088;DHT22;42965;52.846;6.614;2024-03-08T03:39:34;0.90;99.90
57088;DHT22;42965;52.846;6.614;2024-03-08T03:42:06;0.90;99.90
57088;DHT22;42965;52.846;6.614;2024-03-08T03:44:32;0.90;99.90
57088;DHT22;42965;52.846;6.614;2024-03-08T03:46:58;0.80;99.90
57088;DHT22;42965;52.846;6.614;2024-03-08T03:49:25;0.80;99.90
57088;DHT22;42965;52.846;6.614;2024-03-08T03:51:51;0.80;99.90
57088;DHT22;42965;52.846;6.614;2024-03-08T03:54:17;0.80;99.90
57088;DHT22;42965;52.846;6.614;2024-03-08T03:56:43;0.80;99.90
57088;DHT22;42965;52.846;6.614;2024-03-08T03:59:11;0.80;99.90
57088;DHT22;42965;52.846;6.614;2024-03-08T04:01:42;0.80;99.90
57088;DHT22;42965;52.846;6.614;2024-03-08T04:04:09;0.80;99.90
57088;DHT22;42965;52.846;6.614;2024-03-08T04:06:35;0.80;99.90
57088;DHT22;42965;52.846;6.614;2024-03-08T04:09:01;0.80;99.90
57088;DHT22;42965;52.846;6.614;2024-03-08T04:11:28;0.80;99.90
57088;DHT22;42965;52.846;6.614;2024-03-08T04:13:54;0.80;99.90
57088;DHT22;42965;52.846;6.614;2024-03-08T04:16:21;0.80;99.90
57088;DHT22;42965;52.846;6.614;2024-03-08T04:18:47;0.80;99.90
57088;DHT22;42965;52.846;6.614;2024-03-08T04:21:13;0.80;99.90
57088;DHT22;42965;52.846;6.614;2024-03-08T04:23:39;0.80;99.90
57088;DHT22;42965;52.846;6.614;2024-03-08T04:26:06;0.80;99.90
57088;DHT22;42965;52.846;6.614;2024-03-08T04:28:36;0.80;99.90
57088;DHT22;42965;52.846;6.614;2024-03-08T04:31:03;0.80;99.90
57088;DHT22;42965;52.846;6.614;2024-03-08T04:33:30;0.80;99.90
57088;DHT22;42965;52.846;6.614;2024-03-08T04:35:56;0.80;99.90
57088;DHT22;42965;52.846;6.614;2024-03-08T04:38:23;0.80;99.90
57088;DHT22;42965;52.846;6.614;2024-03-08T04:40:50;0.80;99.90
57088;DHT22;42965;52.846;6.614;2024-03-08T04:43:17;0.80;99.90
57088;DHT22;42965;52.846;6.614;2024-03-08T04:45:45;0.80;99.90
57088;DHT22;42965;52.846;6.614;2024-03-08T04:48:11;0.80;99.90
57088;DHT22;42965;52.846;6.614;2024-03-08T04:50:37;0.80;99.90
57088;DHT22;42965;52.846;6.614;2024-03-08T04:53:04;0.80;99.90
57088;DHT22;42965;52.846;6.614;2024-03-08T04:55:34;0.80;99.90
57088;DHT22;42965;52.846;6.614;2024-03-08T04:58:00;0.70;99.90
57088;DHT22;42965;52.846;6.614;2024-03-08T05:00:27;0.80;99.90
57088;DHT22;42965;52.846;6.614;2024-03-08T05:02:53;0.80;99.90
57088;DHT22;42965;52.846;6.614;2024-03-08T05:05:22;0.80;99.90
57088;DHT22;42965;52.846;6.614;2024-03-08T05:07:49;0.70;99.90
57088;DHT22;42965;52.846;6.614;2024-03-08T05:10:15;0.80;99.90
57088;DHT22;42965;52.846;6.614;2024-03-08T05:12:45;0.70;99.90
57088;DHT22;42965;52.846;6.614;2024-03-08T05:15:11;0.70;99.90
57088;DHT22;42965;52.846;6.614;2024-03-08T05:17:37;0.70;99.90
57088;DHT22;42965;52.846;6.614;2024-03-08T05:20:06;0.60;99.90
57088;DHT22;42965;52.846;6.614;2024-03-08T05:22:38;0.60;99.90
57088;DHT22;42965;52.846;6.614;2024-03-08T05:25:08;0.60;99.90
57088;DHT22;42965;52.846;6.614;2024-03-08T05:27:35;0.60;99.90
57088;DHT22;42965;52.846;6.614;2024-03-08T05:30:05;0.60;99.90
57088;DHT22;42965;52.846;6.614;2024-03-08T05:32:32;0.50;99.90
57088;DHT22;42965;52.846;6.614;2024-03-08T05:34:58;0.60;99.90
57088;DHT22;42965;52.846;6.614;2024-03-08T05:37:24;0.50;99.90
57088;DHT22;42965;52.846;6.614;2024-03-08T05:39:51;0.50;99.90
57088;DHT22;42965;52.846;6.614;2024-03-08T05:42:17;0.50;99.90
57088;DHT22;42965;52.846;6.614;2024-03-08T05:44:43;0.50;99.90
57088;DHT22;42965;52.846;6.614;2024-03-08T05:47:10;0.50;99.90
57088;DHT22;42965;52.846;6.614;2024-03-08T05:49:38;0.40;99.90
57088;DHT22;42965;52.846;6.614;2024-03-08T05:52:05;0.40;99.90
57088;DHT22;42965;52.846;6.614;2024-03-08T05:54:31;0.40;99.90
57088;DHT22;42965;52.846;6.614;2024-03-08T05:56:59;0.40;99.90
57088;DHT22;42965;52.846;6.614;2024-03-08T05:59:25;0.40;99.90
57088;DHT22;42965;52.846;6.614;2024-03-08T06:01:51;0.40;99.90
57088;DHT22;42965;52.846;6.614;2024-03-08T06:04:17;0.40;99.90
57088;DHT22;42965;52.846;6.614;2024-03-08T06:06:44;0.30;99.90
57088;DHT22;42965;52.846;6.614;2024-03-08T06:09:10;0.30;99.90
57088;DHT22;42965;52.846;6.614;2024-03-08T06:11:43;0.30;99.90
57088;DHT22;42965;52.846;6.614;2024-03-08T06:14:10;0.30;99.90
57088;DHT22;42965;52.846;6.614;2024-03-08T06:16:36;0.40;99.90
57088;DHT22;42965;52.846;6.614;2024-03-08T06:19:02;0.40;99.90
57088;DHT22;42965;52.846;6.614;2024-03-08T06:21:29;0.50;99.90
57088;DHT22;42965;52.846;6.614;2024-03-08T06:23:55;0.50;99.90
57088;DHT22;42965;52.846;6.614;2024-03-08T06:26:24;0.40;99.90
57088;DHT22;42965;52.846;6.614;2024-03-08T06:28:51;0.50;99.90
57088;DHT22;42965;52.846;6.614;2024-03-08T06:31:17;0.50;99.90
57088;DHT22;42965;52.846;6.614;2024-03-08T06:33:43;0.50;99.90
57088;DHT22;42965;52.846;6.614;2024-03-08T06:36:10;0.60;99.90
57088;DHT22;42965;52.846;6.614;2024-03-08T06:38:39;0.60;99.90
57088;DHT22;42965;52.846;6.614;2024-03-08T06:41:11;0.60;99.90
57088;DHT22;42965;52.846;6.614;2024-03-08T06:43:49;0.60;99.90
57088;DHT22;42965;52.846;6.614;2024-03-08T06:46:18;0.70;99.90
57088;DHT22;42965;52.846;6.614;2024-03-08T06:48:44;0.70;99.90
57088;DHT22;42965;52.846;6.614;2024-03-08T06:51:12;0.70;99.90
57088;DHT22;42965;52.846;6.614;2024-03-08T06:53:38;0.80;99.90
57088;DHT22;42965;52.846;6.614;2024-03-08T06:56:07;0.80;99.90
57088;DHT22;42965;52.846;6.614;2024-03-08T06:58:34;0.80;99.90
57088;DHT22;42965;52.846;6.614;2024-03-08T07:01:00;0.90;99.90
57088;DHT22;42965;52.846;6.614;2024-03-08T07:03:30;0.90;99.90
57088;DHT22;42965;52.846;6.614;2024-03-08T07:05:58;1.00;99.90
57088;DHT22;42965;52.846;6.614;2024-03-08T07:08:25;1.00;99.90
57088;DHT22;42965;52.846;6.614;2024-03-08T07:10:55;1.10;99.90
57088;DHT22;42965;52.846;6.614;2024-03-08T07:13:24;1.20;99.90
57088;DHT22;42965;52.846;6.614;2024-03-08T07:15:52;1.30;99.90
57088;DHT22;42965;52.846;6.614;2024-03-08T07:18:18;1.40;99.90
57088;DHT22;42965;52.846;6.614;2024-03-08T07:20:45;1.50;99.90
57088;DHT22;42965;52.846;6.614;2024-03-08T07:23:11;1.70;99.90
57088;DHT22;42965;52.846;6.614;2024-03-08T07:25:57;1.80;99.90
57088;DHT22;42965;52.846;6.614;2024-03-08T07:28:24;1.90;99.90
57088;DHT22;42965;52.846;6.614;2024-03-08T07:30:50;2.10;99.90
57088;DHT22;42965;52.846;6.614;2024-03-08T07:33:28;2.30;99.90
57088;DHT22;42965;52.846;6.614;2024-03-08T07:35:55;2.50;99.90
57088;DHT22;42965;52.846;6.614;2024-03-08T07:38:22;2.70;99.90
57088;DHT22;42965;52.846;6.614;2024-03-08T07:40:50;2.80;99.90
57088;DHT22;42965;52.846;6.614;2024-03-08T07:43:16;3.00;99.90
57088;DHT22;42965;52.846;6.614;2024-03-08T07:45:43;3.20;99.90
57088;DHT22;42965;52.846;6.614;2024-03-08T07:48:10;3.40;99.90
57088;DHT22;42965;52.846;6.614;2024-03-08T07:50:37;3.60;99.90
57088;DHT22;42965;52.846;6.614;2024-03-08T07:53:05;3.80;99.90
57088;DHT22;42965;52.846;6.614;2024-03-08T07:55:33;4.00;99.90
57088;DHT22;42965;52.846;6.614;2024-03-08T07:58:02;4.20;99.90
57088;DHT22;42965;52.846;6.614;2024-03-08T08:00:31;4.60;99.90
57088;DHT22;42965;52.846;6.614;2024-03-08T08:02:57;4.70;99.90
57088;DHT22;42965;52.846;6.614;2024-03-08T08:05:24;5.00;99.90
57088;DHT22;42965;52.846;6.614;2024-03-08T08:07:51;5.20;99.90
57088;DHT22;42965;52.846;6.614;2024-03-08T08:10:19;5.30;99.90
57088;DHT22;42965;52.846;6.614;2024-03-08T08:12:48;5.60;99.90
57088;DHT22;42965;52.846;6.614;2024-03-08T08:15:15;6.00;99.90
57088;DHT22;42965;52.846;6.614;2024-03-08T08:17:42;6.20;99.90
57088;DHT22;42965;52.846;6.614;2024-03-08T08:20:12;6.40;99.90
57088;DHT22;42965;52.846;6.614;2024-03-08T08:22:42;6.70;99.90
57088;DHT22;42965;52.846;6.614;2024-03-08T08:25:11;6.80;99.90
57088;DHT22;42965;52.846;6.614;2024-03-08T08:27:41;6.90;99.90
57088;DHT22;42965;52.846;6.614;2024-03-08T08:30:11;7.10;99.90
57088;DHT22;42965;52.846;6.614;2024-03-08T08:32:38;7.30;99.90
57088;DHT22;42965;52.846;6.614;2024-03-08T08:35:10;7.70;99.90
57088;DHT22;42965;52.846;6.614;2024-03-08T08:37:41;7.70;99.90
57088;DHT22;42965;52.846;6.614;2024-03-08T08:40:08;7.90;99.90
57088;DHT22;42965;52.846;6.614;2024-03-08T08:42:39;7.90;99.90
57088;DHT22;42965;52.846;6.614;2024-03-08T08:45:06;8.20;99.90
57088;DHT22;42965;52.846;6.614;2024-03-08T08:47:35;8.10;99.90
57088;DHT22;42965;52.846;6.614;2024-03-08T08:50:02;8.30;99.90
57088;DHT22;42965;52.846;6.614;2024-03-08T08:52:33;8.40;99.90
57088;DHT22;42965;52.846;6.614;2024-03-08T08:55:00;8.40;99.90
57088;DHT22;42965;52.846;6.614;2024-03-08T08:57:30;8.20;99.90
57088;DHT22;42965;52.846;6.614;2024-03-08T08:59:59;8.50;99.90
57088;DHT22;42965;52.846;6.614;2024-03-08T09:02:26;8.70;99.90
57088;DHT22;42965;52.846;6.614;2024-03-08T09:04:53;8.70;99.90
57088;DHT22;42965;52.846;6.614;2024-03-08T09:07:19;8.80;99.90
57088;DHT22;42965;52.846;6.614;2024-03-08T09:09:45;9.00;99.90
57088;DHT22;42965;52.846;6.614;2024-03-08T09:12:12;8.90;99.20
57088;DHT22;42965;52.846;6.614;2024-03-08T09:14:41;8.90;99.90
57088;DHT22;42965;52.846;6.614;2024-03-08T09:17:08;9.00;99.90
57088;DHT22;42965;52.846;6.614;2024-03-08T09:19:35;9.20;99.90
57088;DHT22;42965;52.846;6.614;2024-03-08T09:22:03;9.50;99.90
57088;DHT22;42965;52.846;6.614;2024-03-08T09:24:30;9.00;98.50
57088;DHT22;42965;52.846;6.614;2024-03-08T09:27:00;9.60;99.90
57088;DHT22;42965;52.846;6.614;2024-03-08T09:29:26;9.80;99.60
57088;DHT22;42965;52.846;6.614;2024-03-08T09:31:53;10.10;98.70
57088;DHT22;42965;52.846;6.614;2024-03-08T09:34:19;9.80;97.10
57088;DHT22;42965;52.846;6.614;2024-03-08T09:36:45;10.30;97.60
57088;DHT22;42965;52.846;6.614;2024-03-08T09:39:12;10.40;97.40
57088;DHT22;42965;52.846;6.614;2024-03-08T09:41:43;10.60;96.90
57088;DHT22;42965;52.846;6.614;2024-03-08T09:44:10;10.40;95.30
57088;DHT22;42965;52.846;6.614;2024-03-08T09:46:36;10.60;96.70
57088;DHT22;42965;52.846;6.614;2024-03-08T09:49:03;10.80;95.30
57088;DHT22;42965;52.846;6.614;2024-03-08T09:51:33;10.70;95.60
57088;DHT22;42965;52.846;6.614;2024-03-08T09:54:03;10.50;94.80
57088;DHT22;42965;52.846;6.614;2024-03-08T09:56:32;10.40;94.30
57088;DHT22;42965;52.846;6.614;2024-03-08T09:59:02;11.00;95.10
57088;DHT22;42965;52.846;6.614;2024-03-08T10:01:31;11.10;94.80
57088;DHT22;42965;52.846;6.614;2024-03-08T10:03:58;11.20;94.50
57088;DHT22;42965;52.846;6.614;2024-03-08T10:06:24;10.90;94.80
57088;DHT22;42965;52.846;6.614;2024-03-08T10:08:51;11.50;94.30
57088;DHT22;42965;52.846;6.614;2024-03-08T10:11:21;11.60;94.00
57088;DHT22;42965;52.846;6.614;2024-03-08T10:13:48;12.10;93.60
57088;DHT22;42965;52.846;6.614;2024-03-08T10:16:16;12.40;93.40
57088;DHT22;42965;52.846;6.614;2024-03-08T10:18:46;12.70;92.90
57088;DHT22;42965;52.846;6.614;2024-03-08T10:21:13;12.30;92.50
57088;DHT22;42965;52.846;6.614;2024-03-08T10:23:41;12.70;91.40
57088;DHT22;42965;52.846;6.614;2024-03-08T10:26:17;12.80;92.10
57088;DHT22;42965;52.846;6.614;2024-03-08T10:28:50;12.70;90.90
57088;DHT22;42965;52.846;6.614;2024-03-08T10:31:18;13.10;91.60
57088;DHT22;42965;52.846;6.614;2024-03-08T10:33:46;13.00;90.60
57088;DHT22;42965;52.846;6.614;2024-03-08T10:36:13;12.80;91.10
57088;DHT22;42965;52.846;6.614;2024-03-08T10:38:42;13.20;90.40
57088;DHT22;42965;52.846;6.614;2024-03-08T10:41:09;12.90;88.80
57088;DHT22;42965;52.846;6.614;2024-03-08T10:46:52;13.00;90.30
57088;DHT22;42965;52.846;6.614;2024-03-08T10:49:31;12.90;88.60
57088;DHT22;42965;52.846;6.614;2024-03-08T10:52:03;13.30;89.00
57088;DHT22;42965;52.846;6.614;2024-03-08T10:54:32;13.40;87.70
57088;DHT22;42965;52.846;6.614;2024-03-08T10:57:03;13.40;88.90
57088;DHT22;42965;52.846;6.614;2024-03-08T10:59:32;13.80;89.70
57088;DHT22;42965;52.846;6.614;2024-03-08T11:02:01;14.00;88.40
57088;DHT22;42965;52.846;6.614;2024-03-08T11:04:27;14.20;88.00
57088;DHT22;42965;52.846;6.614;2024-03-08T11:07:01;14.50;88.80
57088;DHT22;42965;52.846;6.614;2024-03-08T11:09:36;14.00;86.60
57088;DHT22;42965;52.846;6.614;2024-03-08T11:12:29;14.70;87.30
57088;DHT22;42965;52.846;6.614;2024-03-08T11:15:15;14.10;83.00
57088;DHT22;42965;52.846;6.614;2024-03-08T11:17:48;14.50;83.50
57088;DHT22;42965;52.846;6.614;2024-03-08T11:20:18;14.40;84.90
57088;DHT22;42965;52.846;6.614;2024-03-08T11:23:05;14.20;82.90
57088;DHT22;42965;52.846;6.614;2024-03-08T11:25:40;14.40;82.60
57088;DHT22;42965;52.846;6.614;2024-03-08T11:28:14;14.50;82.50
57088;DHT22;42965;52.846;6.614;2024-03-08T11:33:27;15.30;82.30
57088;DHT22;42965;52.846;6.614;2024-03-08T11:36:22;15.60;81.00
57088;DHT22;42965;52.846;6.614;2024-03-08T11:38:49;15.80;80.00
57088;DHT22;42965;52.846;6.614;2024-03-08T11:41:21;15.60;78.60
57088;DHT22;42965;52.846;6.614;2024-03-08T11:43:50;15.40;78.60
57088;DHT22;42965;52.846;6.614;2024-03-08T11:46:27;15.20;78.00
57088;DHT22;42965;52.846;6.614;2024-03-08T11:48:54;15.30;78.00
57088;DHT22;42965;52.846;6.614;2024-03-08T11:51:22;15.60;79.10
57088;DHT22;42965;52.846;6.614;2024-03-08T11:53:49;15.70;77.70
57088;DHT22;42965;52.846;6.614;2024-03-08T11:56:16;16.20;77.80
57088;DHT22;42965;52.846;6.614;2024-03-08T11:58:55;16.20;77.60
57088;DHT22;42965;52.846;6.614;2024-03-08T12:01:23;15.60;76.20
57088;DHT22;42965;52.846;6.614;2024-03-08T12:03:57;15.40;74.00
57088;DHT22;42965;52.846;6.614;2024-03-08T12:06:25;15.60;79.50
57088;DHT22;42965;52.846;6.614;2024-03-08T12:08:53;15.90;76.20
57088;DHT22;42965;52.846;6.614;2024-03-08T12:11:22;15.90;75.60
57088;DHT22;42965;52.846;6.614;2024-03-08T12:13:49;15.90;72.70
57088;DHT22;42965;52.846;6.614;2024-03-08T12:16:20;16.40;74.10
57088;DHT22;42965;52.846;6.614;2024-03-08T12:18:51;16.10;73.20
57088;DHT22;42965;52.846;6.614;2024-03-08T12:21:18;15.80;70.30
57088;DHT22;42965;52.846;6.614;2024-03-08T12:23:48;16.50;72.90
57088;DHT22;42965;52.846;6.614;2024-03-08T12:26:29;16.20;71.60
57088;DHT22;42965;52.846;6.614;2024-03-08T12:29:14;16.20;70.20
57088;DHT22;42965;52.846;6.614;2024-03-08T12:31:42;16.20;71.90
57088;DHT22;42965;52.846;6.614;2024-03-08T12:34:09;16.60;70.70
57088;DHT22;42965;52.846;6.614;2024-03-08T12:36:36;16.60;69.20
57088;DHT22;42965;52.846;6.614;2024-03-08T12:39:03;16.60;68.00
57088;DHT22;42965;52.846;6.614;2024-03-08T12:41:30;16.80;64.30
57088;DHT22;42965;52.846;6.614;2024-03-08T12:43:56;16.80;66.50
57088;DHT22;42965;52.846;6.614;2024-03-08T12:46:22;16.60;65.90
57088;DHT22;42965;52.846;6.614;2024-03-08T12:48:52;16.80;66.50
57088;DHT22;42965;52.846;6.614;2024-03-08T12:51:20;16.60;64.40
57088;DHT22;42965;52.846;6.614;2024-03-08T12:53:46;16.80;64.30
57088;DHT22;42965;52.846;6.614;2024-03-08T12:56:15;16.90;64.50
57088;DHT22;42965;52.846;6.614;2024-03-08T12:58:45;17.50;64.00
57088;DHT22;42965;52.846;6.614;2024-03-08T13:01:11;17.20;64.90
57088;DHT22;42965;52.846;6.614;2024-03-08T13:03:38;17.30;63.90
57088;DHT22;42965;52.846;6.614;2024-03-08T13:06:06;17.10;64.90
57088;DHT22;42965;52.846;6.614;2024-03-08T13:08:38;17.00;62.70
57088;DHT22;42965;52.846;6.614;2024-03-08T13:11:07;16.50;59.20
57088;DHT22;42965;52.846;6.614;2024-03-08T13:13:34;16.10;60.60
57088;DHT22;42965;52.846;6.614;2024-03-08T13:16:06;15.70;60.70
57088;DHT22;42965;52.846;6.614;2024-03-08T13:18:36;15.60;62.50
57088;DHT22;42965;52.846;6.614;2024-03-08T13:21:02;15.90;61.20
57088;DHT22;42965;52.846;6.614;2024-03-08T13:23:33;15.70;61.80
57088;DHT22;42965;52.846;6.614;2024-03-08T13:26:10;16.10;66.00
57088;DHT22;42965;52.846;6.614;2024-03-08T13:28:50;16.70;62.80
57088;DHT22;42965;52.846;6.614;2024-03-08T13:31:23;16.80;61.20
57088;DHT22;42965;52.846;6.614;2024-03-08T13:33:49;16.80;63.10
57088;DHT22;42965;52.846;6.614;2024-03-08T13:36:17;17.00;61.00
57088;DHT22;42965;52.846;6.614;2024-03-08T13:38:48;16.80;61.10
57088;DHT22;42965;52.846;6.614;2024-03-08T13:41:15;17.50;62.00
57088;DHT22;42965;52.846;6.614;2024-03-08T13:43:47;17.30;59.50
57088;DHT22;42965;52.846;6.614;2024-03-08T13:46:16;17.30;59.50
57088;DHT22;42965;52.846;6.614;2024-03-08T13:48:43;17.30;58.90
57088;DHT22;42965;52.846;6.614;2024-03-08T13:51:09;17.00;58.00
57088;DHT22;42965;52.846;6.614;2024-03-08T13:53:39;17.20;57.70
57088;DHT22;42965;52.846;6.614;2024-03-08T13:56:06;17.70;58.40
57088;DHT22;42965;52.846;6.614;2024-03-08T13:58:34;17.10;57.60
57088;DHT22;42965;52.846;6.614;2024-03-08T14:01:01;16.80;55.70
57088;DHT22;42965;52.846;6.614;2024-03-08T14:03:29;16.50;55.90
57088;DHT22;42965;52.846;6.614;2024-03-08T14:05:55;16.30;57.20
57088;DHT22;42965;52.846;6.614;2024-03-08T14:08:23;16.50;56.80
57088;DHT22;42965;52.846;6.614;2024-03-08T14:10:50;16.60;56.70
57088;DHT22;42965;52.846;6.614;2024-03-08T14:13:19;16.40;58.00
57088;DHT22;42965;52.846;6.614;2024-03-08T14:15:46;16.20;55.20
57088;DHT22;42965;52.846;6.614;2024-03-08T14:18:14;16.60;56.20
57088;DHT22;42965;52.846;6.614;2024-03-08T14:20:41;16.40;55.70
57088;DHT22;42965;52.846;6.614;2024-03-08T14:23:08;16.30;57.20
57088;DHT22;42965;52.846;6.614;2024-03-08T14:25:34;16.70;54.70
57088;DHT22;42965;52.846;6.614;2024-03-08T14:28:01;16.20;53.10
57088;DHT22;42965;52.846;6.614;2024-03-08T14:30:29;16.50;56.10
57088;DHT22;42965;52.846;6.614;2024-03-08T14:33:04;15.90;55.40
57088;DHT22;42965;52.846;6.614;2024-03-08T14:35:38;16.40;55.80
57088;DHT22;42965;52.846;6.614;2024-03-08T14:38:05;16.40;56.70
57088;DHT22;42965;52.846;6.614;2024-03-08T14:40:34;16.10;56.10
57088;DHT22;42965;52.846;6.614;2024-03-08T14:43:02;16.70;57.20
57088;DHT22;42965;52.846;6.614;2024-03-08T14:45:30;16.00;55.70
57088;DHT22;42965;52.846;6.614;2024-03-08T14:47:57;16.00;56.00
57088;DHT22;42965;52.846;6.614;2024-03-08T14:50:24;16.70;55.50
57088;DHT22;42965;52.846;6.614;2024-03-08T14:52:52;16.30;53.60
57088;DHT22;42965;52.846;6.614;2024-03-08T14:55:19;16.30;54.90
57088;DHT22;42965;52.846;6.614;2024-03-08T14:57:49;16.30;54.70
57088;DHT22;42965;52.846;6.614;2024-03-08T15:00:18;15.50;53.90
57088;DHT22;42965;52.846;6.614;2024-03-08T15:03:14;15.70;54.80
57088;DHT22;42965;52.846;6.614;2024-03-08T15:05:42;15.50;53.80
57088;DHT22;42965;52.846;6.614;2024-03-08T15:08:13;15.10;54.10
57088;DHT22;42965;52.846;6.614;2024-03-08T15:10:48;15.30;53.70
57088;DHT22;42965;52.846;6.614;2024-03-08T15:13:21;14.80;53.70
57088;DHT22;42965;52.846;6.614;2024-03-08T15:15:51;14.60;53.60
57088;DHT22;42965;52.846;6.614;2024-03-08T15:18:22;14.90;54.60
57088;DHT22;42965;52.846;6.614;2024-03-08T15:20:54;14.50;55.30
57088;DHT22;42965;52.846;6.614;2024-03-08T15:23:21;14.30;55.40
57088;DHT22;42965;52.846;6.614;2024-03-08T15:25:50;14.00;55.80
57088;DHT22;42965;52.846;6.614;2024-03-08T15:28:17;13.60;56.10
57088;DHT22;42965;52.846;6.614;2024-03-08T15:30:46;13.80;56.80
57088;DHT22;42965;52.846;6.614;2024-03-08T15:33:17;14.00;58.00
57088;DHT22;42965;52.846;6.614;2024-03-08T15:35:51;13.70;58.20
57088;DHT22;42965;52.846;6.614;2024-03-08T15:38:24;13.90;58.90
57088;DHT22;42965;52.846;6.614;2024-03-08T15:40:54;13.70;58.80
57088;DHT22;42965;52.846;6.614;2024-03-08T15:43:21;13.70;59.90
57088;DHT22;42965;52.846;6.614;2024-03-08T15:45:48;13.20;58.20
57088;DHT22;42965;52.846;6.614;2024-03-08T15:48:15;12.50;59.50
57088;DHT22;42965;52.846;6.614;2024-03-08T15:50:42;12.10;61.40
57088;DHT22;42965;52.846;6.614;2024-03-08T15:53:08;11.40;62.60
57088;DHT22;42965;52.846;6.614;2024-03-08T15:55:38;11.20;63.80
57088;DHT22;42965;52.846;6.614;2024-03-08T15:58:07;10.80;64.80